Navigator Glory — D5DP8 — position and weather

sailwx.info

Track history (hours):
 
Tides and Currents Weather Stations Pressure Air Temp Water Temp Dewpoint Dewpoint Depression Visibility Wind Speed Wind Dir Waves Ship Positions

Navigator Glory

Last reported at 2018-Jun-04 07:15 UTC. Time now 2018-Jun-22 18:50 UTC.
Position N 30°31' E 121°54'.
Warning: this ship's position is 18 days out of date.

Length 154 m; draft 7.4 m.

Type: Tanker. MMSI: 636015942.

Date/timePositionNaut miles runAvg speedWind from/ knotsBaromVisibWave heightAir tempDewpointWater temp
2018-Jun-04 07:15N 30°31' E 121°54'413.2
2018-Jun-04 06:58N 30°30' E 121°50'612.6
2018-Jun-04 06:30N 30°29' E 121°43'13 0.5
2018-Jun-03 04:36N 30°42' E 121°39'113.2
2018-Jun-03 04:30N 30°41' E 121°40'713.5
2018-Jun-03 04:00N 30°39' E 121°47'611.2
2018-Jun-03 03:28N 30°34' E 121°52'910.8
2018-Jun-03 02:38N 30°32' E 122°02'214.2
2018-Jun-03 02:29N 30°32' E 122°05'31 3.1
2018-Jun-02 16:38N 30°52' E 122°32'511.6
2018-Jun-02 16:12N 30°57' E 122°31'312.0
2018-Jun-02 15:59N 30°60' E 122°31'9 8.4
2018-Jun-02 14:55N 31°07' E 122°26'1712.3
2018-Jun-02 13:30N 31°04' E 122°45'  
Track history (hours):
 
Tides and Currents Weather Stations Pressure Air Temp Water Temp Dewpoint Dewpoint Depression Visibility Wind Speed Wind Dir Waves Ship Positions

Navigator Glory

Last reported at 2018-Jun-04 07:15 UTC. Time now 2018-Jun-22 18:50 UTC.
Position N 30°31' E 121°54'.
Warning: this ship's position is 18 days out of date.

Length 154 m; draft 7.4 m.

Type: Tanker. MMSI: 636015942.

Date/timePositionNaut miles runAvg speedWind from/ knotsBaromVisibWave heightAir tempDewpointWater temp
2018-Jun-04 07:15N 30°31' E 121°54'413.2
2018-Jun-04 06:58N 30°30' E 121°50'612.6
2018-Jun-04 06:30N 30°29' E 121°43'13 0.5
2018-Jun-03 04:36N 30°42' E 121°39'113.2
2018-Jun-03 04:30N 30°41' E 121°40'713.5
2018-Jun-03 04:00N 30°39' E 121°47'611.2
2018-Jun-03 03:28N 30°34' E 121°52'910.8
2018-Jun-03 02:38N 30°32' E 122°02'214.2
2018-Jun-03 02:29N 30°32' E 122°05'31 3.1
2018-Jun-02 16:38N 30°52' E 122°32'511.6
2018-Jun-02 16:12N 30°57' E 122°31'312.0
2018-Jun-02 15:59N 30°60' E 122°31'9 8.4
2018-Jun-02 14:55N 31°07' E 122°26'1712.3
2018-Jun-02 13:30N 31°04' E 122°45'  

Dump ship's entire track history